Terminal Aerodrome Forecast
Issued by NWS Duluth, MN

Home | Current Version | Previous Version | Text Only | Print | Product List | Glossary On
Versions: 1 2 3 4 5 6 7 8 9 10 11 12 13 14 15 16 17 18 19 20 21 22 23 24 25 26 27 28 29 30 31 32 33
792
FTUS43 KDLH 232216 AAC
TAFINL
TAF AMD
KINL 232216Z 2322/2418 29005KT P6SM OVC007
     FM240000 35005KT P6SM OVC015
     FM240300 04005KT P6SM -SHRA OVC010
     FM240800 08005KT 4SM -SHRA BR SCT004 OVC007
     FM241500 15005KT P6SM -SHRA OVC010=

USA.gov is the U.S. government's official web portal to all federal, state and local government web resources and services.